sensor_id;sensor_type;location;lat;lon;timestamp;P1;durP1;ratioP1;P2;durP2;ratioP2
40286;SDS011;25998;46.604;13.610;2022-10-18T00:01:27;17.30;;;13.45;;
40286;SDS011;25998;46.604;13.610;2022-10-18T00:04:37;20.25;;;13.52;;
40286;SDS011;25998;46.604;13.610;2022-10-18T00:07:48;17.27;;;13.45;;
40286;SDS011;25998;46.604;13.610;2022-10-18T00:10:59;19.50;;;14.48;;
40286;SDS011;25998;46.604;13.610;2022-10-18T00:14:10;18.40;;;13.95;;
40286;SDS011;25998;46.604;13.610;2022-10-18T00:17:21;15.02;;;13.25;;
40286;SDS011;25998;46.604;13.610;2022-10-18T00:20:31;18.95;;;13.27;;
40286;SDS011;25998;46.604;13.610;2022-10-18T00:23:42;19.10;;;13.23;;
40286;SDS011;25998;46.604;13.610;2022-10-18T00:26:54;16.98;;;13.75;;
40286;SDS011;25998;46.604;13.610;2022-10-18T00:30:05;16.10;;;13.75;;
40286;SDS011;25998;46.604;13.610;2022-10-18T00:33:16;17.77;;;14.27;;
40286;SDS011;25998;46.604;13.610;2022-10-18T00:36:27;20.58;;;14.50;;
40286;SDS011;25998;46.604;13.610;2022-10-18T00:39:40;18.95;;;14.00;;
40286;SDS011;25998;46.604;13.610;2022-10-18T00:42:51;16.73;;;14.23;;
40286;SDS011;25998;46.604;13.610;2022-10-18T00:46:01;21.90;;;14.05;;
40286;SDS011;25998;46.604;13.610;2022-10-18T00:49:31;19.63;;;14.35;;
40286;SDS011;25998;46.604;13.610;2022-10-18T00:52:54;20.65;;;14.15;;
40286;SDS011;25998;46.604;13.610;2022-10-18T00:56:10;19.02;;;13.95;;
40286;SDS011;25998;46.604;13.610;2022-10-18T00:59:22;23.90;;;15.50;;
40286;SDS011;25998;46.604;13.610;2022-10-18T01:02:34;18.75;;;14.10;;
40286;SDS011;25998;46.604;13.610;2022-10-18T01:05:46;17.90;;;13.73;;
40286;SDS011;25998;46.604;13.610;2022-10-18T01:09:07;18.15;;;14.82;;
40286;SDS011;25998;46.604;13.610;2022-10-18T01:16:19;17.30;;;14.20;;
40286;SDS011;25998;46.604;13.610;2022-10-18T01:19:42;20.38;;;14.38;;
40286;SDS011;25998;46.604;13.610;2022-10-18T01:33:57;18.67;;;13.60;;
40286;SDS011;25998;46.604;13.610;2022-10-18T01:37:12;20.00;;;13.48;;
40286;SDS011;25998;46.604;13.610;2022-10-18T01:40:26;19.20;;;14.48;;
40286;SDS011;25998;46.604;13.610;2022-10-18T01:43:38;18.23;;;14.98;;
40286;SDS011;25998;46.604;13.610;2022-10-18T01:46:51;18.40;;;13.73;;
40286;SDS011;25998;46.604;13.610;2022-10-18T01:50:05;17.38;;;13.75;;
40286;SDS011;25998;46.604;13.610;2022-10-18T01:53:20;17.67;;;13.70;;
40286;SDS011;25998;46.604;13.610;2022-10-18T02:03:44;17.85;;;13.27;;
40286;SDS011;25998;46.604;13.610;2022-10-18T02:07:02;16.83;;;14.07;;
40286;SDS011;25998;46.604;13.610;2022-10-18T02:10:34;21.13;;;14.57;;
40286;SDS011;25998;46.604;13.610;2022-10-18T02:13:54;17.00;;;14.63;;
40286;SDS011;25998;46.604;13.610;2022-10-18T02:17:08;20.17;;;14.88;;
40286;SDS011;25998;46.604;13.610;2022-10-18T02:20:22;16.85;;;13.32;;
40286;SDS011;25998;46.604;13.610;2022-10-18T02:23:35;18.92;;;15.35;;
40286;SDS011;25998;46.604;13.610;2022-10-18T02:26:46;22.58;;;14.82;;
40286;SDS011;25998;46.604;13.610;2022-10-18T02:29:57;18.05;;;14.13;;
40286;SDS011;25998;46.604;13.610;2022-10-18T02:33:10;21.50;;;13.95;;
40286;SDS011;25998;46.604;13.610;2022-10-18T02:36:32;18.02;;;14.80;;
40286;SDS011;25998;46.604;13.610;2022-10-18T02:39:48;19.60;;;14.82;;
40286;SDS011;25998;46.604;13.610;2022-10-18T02:43:04;18.95;;;14.32;;
40286;SDS011;25998;46.604;13.610;2022-10-18T02:46:15;18.88;;;14.30;;
40286;SDS011;25998;46.604;13.610;2022-10-18T02:49:26;20.52;;;15.13;;
40286;SDS011;25998;46.604;13.610;2022-10-18T02:52:37;18.58;;;13.52;;
40286;SDS011;25998;46.604;13.610;2022-10-18T02:55:48;20.60;;;15.15;;
40286;SDS011;25998;46.604;13.610;2022-10-18T02:58:59;20.30;;;14.93;;
40286;SDS011;25998;46.604;13.610;2022-10-18T03:02:10;20.33;;;14.88;;
40286;SDS011;25998;46.604;13.610;2022-10-18T03:05:21;19.98;;;15.25;;
40286;SDS011;25998;46.604;13.610;2022-10-18T03:08:32;25.27;;;16.60;;
40286;SDS011;25998;46.604;13.610;2022-10-18T03:11:42;20.58;;;16.40;;
40286;SDS011;25998;46.604;13.610;2022-10-18T03:14:53;18.98;;;14.02;;
40286;SDS011;25998;46.604;13.610;2022-10-18T03:18:04;20.42;;;15.48;;
40286;SDS011;25998;46.604;13.610;2022-10-18T03:21:15;19.85;;;15.48;;
40286;SDS011;25998;46.604;13.610;2022-10-18T03:24:26;18.75;;;14.43;;
40286;SDS011;25998;46.604;13.610;2022-10-18T03:27:36;17.02;;;13.38;;
40286;SDS011;25998;46.604;13.610;2022-10-18T03:30:47;17.63;;;12.90;;
40286;SDS011;25998;46.604;13.610;2022-10-18T03:33:58;19.25;;;13.88;;
40286;SDS011;25998;46.604;13.610;2022-10-18T03:37:09;27.45;;;15.93;;
40286;SDS011;25998;46.604;13.610;2022-10-18T03:40:20;27.75;;;16.67;;
40286;SDS011;25998;46.604;13.610;2022-10-18T03:43:30;25.13;;;16.65;;
40286;SDS011;25998;46.604;13.610;2022-10-18T03:46:41;28.83;;;16.25;;
40286;SDS011;25998;46.604;13.610;2022-10-18T03:49:52;21.98;;;15.10;;
40286;SDS011;25998;46.604;13.610;2022-10-18T03:53:03;20.17;;;15.45;;
40286;SDS011;25998;46.604;13.610;2022-10-18T03:56:14;25.88;;;16.65;;
40286;SDS011;25998;46.604;13.610;2022-10-18T03:59:24;25.52;;;15.98;;
40286;SDS011;25998;46.604;13.610;2022-10-18T04:02:35;22.17;;;15.80;;
40286;SDS011;25998;46.604;13.610;2022-10-18T04:05:46;19.75;;;14.65;;
40286;SDS011;25998;46.604;13.610;2022-10-18T04:08:58;22.85;;;14.82;;
40286;SDS011;25998;46.604;13.610;2022-10-18T04:12:09;28.95;;;15.75;;
40286;SDS011;25998;46.604;13.610;2022-10-18T04:15:20;17.98;;;14.73;;
40286;SDS011;25998;46.604;13.610;2022-10-18T04:18:30;18.52;;;13.95;;
40286;SDS011;25998;46.604;13.610;2022-10-18T04:21:41;19.27;;;14.70;;
40286;SDS011;25998;46.604;13.610;2022-10-18T04:24:52;29.95;;;17.30;;
40286;SDS011;25998;46.604;13.610;2022-10-18T04:28:03;25.83;;;17.02;;
40286;SDS011;25998;46.604;13.610;2022-10-18T04:31:14;26.05;;;17.10;;
40286;SDS011;25998;46.604;13.610;2022-10-18T04:34:25;37.78;;;18.33;;
40286;SDS011;25998;46.604;13.610;2022-10-18T04:37:36;30.67;;;17.33;;
40286;SDS011;25998;46.604;13.610;2022-10-18T04:40:47;29.70;;;17.13;;
40286;SDS011;25998;46.604;13.610;2022-10-18T04:43:58;25.77;;;16.23;;
40286;SDS011;25998;46.604;13.610;2022-10-18T04:47:09;25.08;;;16.02;;
40286;SDS011;25998;46.604;13.610;2022-10-18T04:50:19;26.50;;;17.20;;
40286;SDS011;25998;46.604;13.610;2022-10-18T04:53:30;30.33;;;16.67;;
40286;SDS011;25998;46.604;13.610;2022-10-18T04:56:41;28.65;;;16.23;;
40286;SDS011;25998;46.604;13.610;2022-10-18T04:59:52;22.83;;;14.68;;
40286;SDS011;25998;46.604;13.610;2022-10-18T05:03:03;28.05;;;14.45;;
40286;SDS011;25998;46.604;13.610;2022-10-18T05:06:14;24.60;;;14.25;;
40286;SDS011;25998;46.604;13.610;2022-10-18T05:09:24;22.83;;;14.48;;
40286;SDS011;25998;46.604;13.610;2022-10-18T05:12:36;35.33;;;15.65;;
40286;SDS011;25998;46.604;13.610;2022-10-18T05:15:46;32.50;;;16.33;;
40286;SDS011;25998;46.604;13.610;2022-10-18T05:18:57;29.38;;;15.38;;
40286;SDS011;25998;46.604;13.610;2022-10-18T05:22:08;37.08;;;16.00;;
40286;SDS011;25998;46.604;13.610;2022-10-18T05:25:19;28.98;;;15.90;;
40286;SDS011;25998;46.604;13.610;2022-10-18T05:28:30;34.40;;;15.52;;
40286;SDS011;25998;46.604;13.610;2022-10-18T05:31:41;33.35;;;16.05;;
40286;SDS011;25998;46.604;13.610;2022-10-18T05:34:51;31.80;;;15.10;;
40286;SDS011;25998;46.604;13.610;2022-10-18T05:38:03;28.40;;;15.25;;
40286;SDS011;25998;46.604;13.610;2022-10-18T05:41:15;23.38;;;15.57;;
40286;SDS011;25998;46.604;13.610;2022-10-18T05:44:25;30.10;;;16.55;;
40286;SDS011;25998;46.604;13.610;2022-10-18T05:47:36;27.02;;;14.95;;
40286;SDS011;25998;46.604;13.610;2022-10-18T05:50:47;26.95;;;14.68;;
40286;SDS011;25998;46.604;13.610;2022-10-18T05:53:58;22.75;;;14.32;;
40286;SDS011;25998;46.604;13.610;2022-10-18T05:57:09;28.70;;;15.65;;
40286;SDS011;25998;46.604;13.610;2022-10-18T06:00:20;36.40;;;15.40;;
40286;SDS011;25998;46.604;13.610;2022-10-18T06:03:31;28.55;;;15.40;;
40286;SDS011;25998;46.604;13.610;2022-10-18T06:06:43;25.02;;;13.65;;
40286;SDS011;25998;46.604;13.610;2022-10-18T06:09:53;30.60;;;15.20;;
40286;SDS011;25998;46.604;13.610;2022-10-18T06:13:04;28.13;;;15.55;;
40286;SDS011;25998;46.604;13.610;2022-10-18T06:16:16;33.05;;;14.75;;
40286;SDS011;25998;46.604;13.610;2022-10-18T06:19:29;28.60;;;15.18;;
40286;SDS011;25998;46.604;13.610;2022-10-18T06:22:39;30.67;;;15.07;;
40286;SDS011;25998;46.604;13.610;2022-10-18T06:25:50;36.63;;;15.75;;
40286;SDS011;25998;46.604;13.610;2022-10-18T06:29:01;31.02;;;14.80;;
40286;SDS011;25998;46.604;13.610;2022-10-18T06:32:12;44.45;;;16.92;;
40286;SDS011;25998;46.604;13.610;2022-10-18T06:35:23;39.90;;;15.60;;
40286;SDS011;25998;46.604;13.610;2022-10-18T06:38:34;39.70;;;15.85;;
40286;SDS011;25998;46.604;13.610;2022-10-18T06:41:45;30.52;;;15.15;;
40286;SDS011;25998;46.604;13.610;2022-10-18T06:44:56;28.20;;;15.70;;
40286;SDS011;25998;46.604;13.610;2022-10-18T06:48:07;27.02;;;14.90;;
40286;SDS011;25998;46.604;13.610;2022-10-18T06:51:18;27.48;;;13.68;;
40286;SDS011;25998;46.604;13.610;2022-10-18T06:54:29;28.42;;;14.85;;
40286;SDS011;25998;46.604;13.610;2022-10-18T06:57:40;23.50;;;13.30;;
40286;SDS011;25998;46.604;13.610;2022-10-18T07:00:51;31.92;;;15.65;;
40286;SDS011;25998;46.604;13.610;2022-10-18T07:04:02;33.85;;;16.55;;
40286;SDS011;25998;46.604;13.610;2022-10-18T07:07:12;29.40;;;15.43;;
40286;SDS011;25998;46.604;13.610;2022-10-18T07:10:23;30.15;;;14.88;;
40286;SDS011;25998;46.604;13.610;2022-10-18T07:13:34;31.63;;;14.45;;
40286;SDS011;25998;46.604;13.610;2022-10-18T07:16:45;22.52;;;13.43;;
40286;SDS011;25998;46.604;13.610;2022-10-18T07:19:56;42.10;;;16.50;;
40286;SDS011;25998;46.604;13.610;2022-10-18T07:23:07;24.75;;;13.95;;
40286;SDS011;25998;46.604;13.610;2022-10-18T07:29:32;32.45;;;13.80;;
40286;SDS011;25998;46.604;13.610;2022-10-18T07:32:43;30.33;;;14.88;;
40286;SDS011;25998;46.604;13.610;2022-10-18T07:35:54;21.23;;;13.95;;
40286;SDS011;25998;46.604;13.610;2022-10-18T07:39:04;24.05;;;13.98;;
40286;SDS011;25998;46.604;13.610;2022-10-18T07:42:16;13.23;;;9.90;;
40286;SDS011;25998;46.604;13.610;2022-10-18T07:45:26;14.73;;;10.32;;
40286;SDS011;25998;46.604;13.610;2022-10-18T07:48:37;13.20;;;11.80;;
40286;SDS011;25998;46.604;13.610;2022-10-18T07:51:48;13.90;;;10.85;;
40286;SDS011;25998;46.604;13.610;2022-10-18T07:54:59;15.93;;;10.15;;
40286;SDS011;25998;46.604;13.610;2022-10-18T07:58:10;12.73;;;10.48;;
40286;SDS011;25998;46.604;13.610;2022-10-18T08:01:21;11.23;;;9.55;;
40286;SDS011;25998;46.604;13.610;2022-10-18T08:04:34;10.93;;;9.35;;
40286;SDS011;25998;46.604;13.610;2022-10-18T08:07:44;17.27;;;10.30;;
40286;SDS011;25998;46.604;13.610;2022-10-18T08:11:00;14.65;;;10.13;;
40286;SDS011;25998;46.604;13.610;2022-10-18T08:14:15;11.05;;;9.45;;
40286;SDS011;25998;46.604;13.610;2022-10-18T08:17:25;9.75;;;8.68;;
40286;SDS011;25998;46.604;13.610;2022-10-18T08:20:36;11.88;;;9.55;;
40286;SDS011;25998;46.604;13.610;2022-10-18T08:23:52;11.63;;;10.15;;
40286;SDS011;25998;46.604;13.610;2022-10-18T08:27:03;11.27;;;8.93;;
40286;SDS011;25998;46.604;13.610;2022-10-18T08:30:14;11.70;;;10.23;;
40286;SDS011;25998;46.604;13.610;2022-10-18T08:33:25;12.10;;;9.95;;
40286;SDS011;25998;46.604;13.610;2022-10-18T08:36:35;11.43;;;9.75;;
40286;SDS011;25998;46.604;13.610;2022-10-18T08:39:47;10.23;;;8.80;;
40286;SDS011;25998;46.604;13.610;2022-10-18T08:46:23;10.82;;;9.13;;
40286;SDS011;25998;46.604;13.610;2022-10-18T08:49:35;12.27;;;9.43;;
40286;SDS011;25998;46.604;13.610;2022-10-18T08:56:10;11.80;;;8.63;;
40286;SDS011;25998;46.604;13.610;2022-10-18T08:59:24;16.20;;;9.20;;
40286;SDS011;25998;46.604;13.610;2022-10-18T09:02:40;12.25;;;8.73;;
40286;SDS011;25998;46.604;13.610;2022-10-18T09:06:25;12.45;;;8.90;;
40286;SDS011;25998;46.604;13.610;2022-10-18T09:20:30;9.50;;;8.52;;
40286;SDS011;25998;46.604;13.610;2022-10-18T09:27:36;10.98;;;8.88;;
40286;SDS011;25998;46.604;13.610;2022-10-18T09:31:24;10.40;;;9.27;;
40286;SDS011;25998;46.604;13.610;2022-10-18T09:35:04;10.15;;;8.73;;
40286;SDS011;25998;46.604;13.610;2022-10-18T09:38:22;9.90;;;8.52;;
40286;SDS011;25998;46.604;13.610;2022-10-18T09:41:47;9.20;;;8.00;;
40286;SDS011;25998;46.604;13.610;2022-10-18T09:45:05;10.85;;;8.05;;
40286;SDS011;25998;46.604;13.610;2022-10-18T09:48:39;9.35;;;8.40;;
40286;SDS011;25998;46.604;13.610;2022-10-18T09:52:03;11.60;;;7.60;;
40286;SDS011;25998;46.604;13.610;2022-10-18T09:55:19;10.85;;;8.60;;
40286;SDS011;25998;46.604;13.610;2022-10-18T10:01:55;10.45;;;7.40;;
40286;SDS011;25998;46.604;13.610;2022-10-18T10:05:10;13.82;;;8.27;;
40286;SDS011;25998;46.604;13.610;2022-10-18T10:08:30;10.95;;;7.78;;
40286;SDS011;25998;46.604;13.610;2022-10-18T10:11:43;10.07;;;7.75;;
40286;SDS011;25998;46.604;13.610;2022-10-18T10:15:06;8.68;;;7.32;;
40286;SDS011;25998;46.604;13.610;2022-10-18T10:18:35;9.90;;;8.18;;
40286;SDS011;25998;46.604;13.610;2022-10-18T10:21:49;9.35;;;7.82;;
40286;SDS011;25998;46.604;13.610;2022-10-18T10:25:04;8.50;;;7.55;;
40286;SDS011;25998;46.604;13.610;2022-10-18T10:28:17;9.00;;;7.82;;
40286;SDS011;25998;46.604;13.610;2022-10-18T10:31:33;9.02;;;7.60;;
40286;SDS011;25998;46.604;13.610;2022-10-18T10:34:45;8.20;;;7.40;;
40286;SDS011;25998;46.604;13.610;2022-10-18T10:37:56;18.00;;;9.50;;
40286;SDS011;25998;46.604;13.610;2022-10-18T10:41:17;8.55;;;6.80;;
40286;SDS011;25998;46.604;13.610;2022-10-18T10:44:31;9.30;;;6.82;;
40286;SDS011;25998;46.604;13.610;2022-10-18T10:47:45;7.75;;;6.90;;
40286;SDS011;25998;46.604;13.610;2022-10-18T10:51:05;7.32;;;6.20;;
40286;SDS011;25998;46.604;13.610;2022-10-18T10:54:20;8.00;;;6.80;;
40286;SDS011;25998;46.604;13.610;2022-10-18T10:57:33;6.60;;;5.90;;
40286;SDS011;25998;46.604;13.610;2022-10-18T11:00:44;8.75;;;6.43;;
40286;SDS011;25998;46.604;13.610;2022-10-18T11:03:56;6.78;;;6.07;;
40286;SDS011;25998;46.604;13.610;2022-10-18T11:07:26;7.63;;;6.45;;
40286;SDS011;25998;46.604;13.610;2022-10-18T11:11:07;6.55;;;5.85;;
40286;SDS011;25998;46.604;13.610;2022-10-18T11:14:28;6.78;;;6.07;;
40286;SDS011;25998;46.604;13.610;2022-10-18T11:21:24;9.38;;;6.95;;
40286;SDS011;25998;46.604;13.610;2022-10-18T11:24:38;7.10;;;6.35;;
40286;SDS011;25998;46.604;13.610;2022-10-18T11:28:00;8.20;;;6.60;;
40286;SDS011;25998;46.604;13.610;2022-10-18T11:34:45;10.50;;;7.65;;
40286;SDS011;25998;46.604;13.610;2022-10-18T11:38:20;7.20;;;6.55;;
40286;SDS011;25998;46.604;13.610;2022-10-18T11:41:58;8.20;;;7.03;;
40286;SDS011;25998;46.604;13.610;2022-10-18T11:55:58;7.97;;;7.18;;
40286;SDS011;25998;46.604;13.610;2022-10-18T12:06:29;12.23;;;8.05;;
40286;SDS011;25998;46.604;13.610;2022-10-18T12:09:45;8.88;;;7.35;;
40286;SDS011;25998;46.604;13.610;2022-10-18T12:12:58;8.88;;;7.88;;
40286;SDS011;25998;46.604;13.610;2022-10-18T12:16:12;10.00;;;8.25;;
40286;SDS011;25998;46.604;13.610;2022-10-18T12:19:25;8.20;;;7.35;;
40286;SDS011;25998;46.604;13.610;2022-10-18T12:22:38;10.75;;;8.30;;
40286;SDS011;25998;46.604;13.610;2022-10-18T12:26:03;12.38;;;9.20;;
40286;SDS011;25998;46.604;13.610;2022-10-18T12:32:34;10.65;;;9.25;;
40286;SDS011;25998;46.604;13.610;2022-10-18T12:42:46;10.27;;;9.25;;
40286;SDS011;25998;46.604;13.610;2022-10-18T12:45:59;9.65;;;8.75;;
40286;SDS011;25998;46.604;13.610;2022-10-18T12:49:12;9.45;;;8.55;;
40286;SDS011;25998;46.604;13.610;2022-10-18T12:52:28;11.20;;;9.52;;
40286;SDS011;25998;46.604;13.610;2022-10-18T12:55:45;10.52;;;8.60;;
40286;SDS011;25998;46.604;13.610;2022-10-18T13:02:27;10.23;;;9.23;;
40286;SDS011;25998;46.604;13.610;2022-10-18T13:09:08;10.30;;;9.30;;
40286;SDS011;25998;46.604;13.610;2022-10-18T13:15:45;9.10;;;8.13;;
40286;SDS011;25998;46.604;13.610;2022-10-18T13:22:39;10.80;;;8.57;;
40286;SDS011;25998;46.604;13.610;2022-10-18T13:26:20;11.05;;;8.27;;
40286;SDS011;25998;46.604;13.610;2022-10-18T13:29:49;9.40;;;8.13;;
40286;SDS011;25998;46.604;13.610;2022-10-18T13:33:39;9.05;;;8.10;;
40286;SDS011;25998;46.604;13.610;2022-10-18T13:36:58;9.18;;;7.65;;
40286;SDS011;25998;46.604;13.610;2022-10-18T13:40:27;12.10;;;8.35;;
40286;SDS011;25998;46.604;13.610;2022-10-18T13:47:31;9.75;;;8.18;;
40286;SDS011;25998;46.604;13.610;2022-10-18T13:50:44;10.02;;;9.00;;
40286;SDS011;25998;46.604;13.610;2022-10-18T13:54:03;13.07;;;9.60;;
40286;SDS011;25998;46.604;13.610;2022-10-18T14:01:02;12.53;;;8.93;;
40286;SDS011;25998;46.604;13.610;2022-10-18T14:08:59;8.88;;;7.72;;
40286;SDS011;25998;46.604;13.610;2022-10-18T14:12:21;10.65;;;8.13;;
40286;SDS011;25998;46.604;13.610;2022-10-18T14:15:35;8.88;;;7.97;;
40286;SDS011;25998;46.604;13.610;2022-10-18T14:18:51;8.15;;;7.35;;
40286;SDS011;25998;46.604;13.610;2022-10-18T14:25:34;12.73;;;8.18;;
40286;SDS011;25998;46.604;13.610;2022-10-18T14:29:00;11.18;;;7.63;;
40286;SDS011;25998;46.604;13.610;2022-10-18T14:32:20;17.00;;;8.30;;
40286;SDS011;25998;46.604;13.610;2022-10-18T14:35:34;10.88;;;8.15;;
40286;SDS011;25998;46.604;13.610;2022-10-18T14:41:58;11.93;;;8.27;;
40286;SDS011;25998;46.604;13.610;2022-10-18T14:45:16;14.45;;;8.55;;
40286;SDS011;25998;46.604;13.610;2022-10-18T14:48:30;12.02;;;8.55;;
40286;SDS011;25998;46.604;13.610;2022-10-18T14:51:41;14.15;;;8.60;;
40286;SDS011;25998;46.604;13.610;2022-10-18T14:54:55;12.55;;;8.60;;
40286;SDS011;25998;46.604;13.610;2022-10-18T14:58:13;13.65;;;8.52;;
40286;SDS011;25998;46.604;13.610;2022-10-18T15:01:27;11.85;;;7.75;;
40286;SDS011;25998;46.604;13.610;2022-10-18T15:04:42;9.85;;;8.48;;
40286;SDS011;25998;46.604;13.610;2022-10-18T15:07:54;12.18;;;8.10;;
40286;SDS011;25998;46.604;13.610;2022-10-18T15:11:09;10.13;;;8.43;;
40286;SDS011;25998;46.604;13.610;2022-10-18T15:14:23;15.60;;;8.65;;
40286;SDS011;25998;46.604;13.610;2022-10-18T15:17:36;11.63;;;8.35;;
40286;SDS011;25998;46.604;13.610;2022-10-18T15:21:08;14.15;;;8.50;;
40286;SDS011;25998;46.604;13.610;2022-10-18T15:24:20;15.35;;;8.65;;
40286;SDS011;25998;46.604;13.610;2022-10-18T15:27:36;14.20;;;8.32;;
40286;SDS011;25998;46.604;13.610;2022-10-18T15:30:48;16.92;;;9.32;;
40286;SDS011;25998;46.604;13.610;2022-10-18T15:37:40;11.32;;;8.32;;
40286;SDS011;25998;46.604;13.610;2022-10-18T15:40:53;17.40;;;9.18;;
40286;SDS011;25998;46.604;13.610;2022-10-18T15:44:15;16.55;;;9.82;;
40286;SDS011;25998;46.604;13.610;2022-10-18T15:47:30;12.80;;;8.00;;
40286;SDS011;25998;46.604;13.610;2022-10-18T15:50:41;12.82;;;8.20;;
40286;SDS011;25998;46.604;13.610;2022-10-18T15:53:57;16.63;;;9.27;;
40286;SDS011;25998;46.604;13.610;2022-10-18T15:57:09;24.67;;;9.32;;
40286;SDS011;25998;46.604;13.610;2022-10-18T16:00:20;16.83;;;8.18;;
40286;SDS011;25998;46.604;13.610;2022-10-18T16:03:34;16.35;;;9.20;;
40286;SDS011;25998;46.604;13.610;2022-10-18T16:06:45;11.57;;;8.02;;
40286;SDS011;25998;46.604;13.610;2022-10-18T16:09:56;14.45;;;8.32;;
40286;SDS011;25998;46.604;13.610;2022-10-18T16:13:07;19.27;;;8.88;;
40286;SDS011;25998;46.604;13.610;2022-10-18T16:16:22;15.02;;;8.68;;
40286;SDS011;25998;46.604;13.610;2022-10-18T16:19:34;12.82;;;11.00;;
40286;SDS011;25998;46.604;13.610;2022-10-18T16:22:45;15.18;;;8.48;;
40286;SDS011;25998;46.604;13.610;2022-10-18T16:25:56;10.68;;;8.00;;
40286;SDS011;25998;46.604;13.610;2022-10-18T16:29:09;11.35;;;8.23;;
40286;SDS011;25998;46.604;13.610;2022-10-18T16:32:25;10.40;;;8.07;;
40286;SDS011;25998;46.604;13.610;2022-10-18T16:35:36;10.60;;;7.50;;
40286;SDS011;25998;46.604;13.610;2022-10-18T16:38:47;11.07;;;7.45;;
40286;SDS011;25998;46.604;13.610;2022-10-18T16:41:59;12.35;;;7.45;;
40286;SDS011;25998;46.604;13.610;2022-10-18T16:45:10;12.57;;;7.25;;
40286;SDS011;25998;46.604;13.610;2022-10-18T16:48:21;12.27;;;7.85;;
40286;SDS011;25998;46.604;13.610;2022-10-18T16:51:33;11.43;;;7.35;;
40286;SDS011;25998;46.604;13.610;2022-10-18T16:54:44;14.57;;;7.78;;
40286;SDS011;25998;46.604;13.610;2022-10-18T16:57:55;12.07;;;6.85;;
40286;SDS011;25998;46.604;13.610;2022-10-18T17:01:06;13.23;;;7.18;;
40286;SDS011;25998;46.604;13.610;2022-10-18T17:04:23;8.63;;;6.57;;
40286;SDS011;25998;46.604;13.610;2022-10-18T17:07:34;12.18;;;6.82;;
40286;SDS011;25998;46.604;13.610;2022-10-18T17:10:45;10.73;;;7.38;;
40286;SDS011;25998;46.604;13.610;2022-10-18T17:13:57;12.15;;;7.03;;
40286;SDS011;25998;46.604;13.610;2022-10-18T17:17:11;11.95;;;7.20;;
40286;SDS011;25998;46.604;13.610;2022-10-18T17:20:23;10.05;;;6.60;;
40286;SDS011;25998;46.604;13.610;2022-10-18T17:23:35;11.85;;;7.65;;
40286;SDS011;25998;46.604;13.610;2022-10-18T17:26:46;13.95;;;7.28;;
40286;SDS011;25998;46.604;13.610;2022-10-18T17:29:57;12.10;;;7.47;;
40286;SDS011;25998;46.604;13.610;2022-10-18T17:33:08;19.90;;;8.20;;
40286;SDS011;25998;46.604;13.610;2022-10-18T17:36:19;10.00;;;7.15;;
40286;SDS011;25998;46.604;13.610;2022-10-18T17:39:31;12.93;;;7.20;;
40286;SDS011;25998;46.604;13.610;2022-10-18T17:42:42;11.27;;;7.25;;
40286;SDS011;25998;46.604;13.610;2022-10-18T17:45:53;11.13;;;7.78;;
40286;SDS011;25998;46.604;13.610;2022-10-18T17:49:05;14.18;;;7.82;;
40286;SDS011;25998;46.604;13.610;2022-10-18T17:52:16;11.77;;;7.90;;
40286;SDS011;25998;46.604;13.610;2022-10-18T17:55:26;8.63;;;7.45;;
40286;SDS011;25998;46.604;13.610;2022-10-18T17:58:39;10.38;;;7.45;;
40286;SDS011;25998;46.604;13.610;2022-10-18T18:01:52;9.50;;;7.05;;
40286;SDS011;25998;46.604;13.610;2022-10-18T18:05:04;10.68;;;7.90;;
40286;SDS011;25998;46.604;13.610;2022-10-18T18:08:14;15.68;;;9.32;;
40286;SDS011;25998;46.604;13.610;2022-10-18T18:11:26;11.93;;;8.43;;
40286;SDS011;25998;46.604;13.610;2022-10-18T18:14:37;12.30;;;7.70;;
40286;SDS011;25998;46.604;13.610;2022-10-18T18:17:48;13.52;;;7.63;;
40286;SDS011;25998;46.604;13.610;2022-10-18T18:20:59;11.63;;;7.65;;
40286;SDS011;25998;46.604;13.610;2022-10-18T18:24:10;14.10;;;7.72;;
40286;SDS011;25998;46.604;13.610;2022-10-18T18:27:23;11.93;;;7.80;;
40286;SDS011;25998;46.604;13.610;2022-10-18T18:30:33;12.65;;;6.88;;
40286;SDS011;25998;46.604;13.610;2022-10-18T18:33:48;13.00;;;7.47;;
40286;SDS011;25998;46.604;13.610;2022-10-18T18:37:00;16.77;;;7.70;;
40286;SDS011;25998;46.604;13.610;2022-10-18T18:40:11;19.77;;;7.53;;
40286;SDS011;25998;46.604;13.610;2022-10-18T18:43:23;11.20;;;7.32;;
40286;SDS011;25998;46.604;13.610;2022-10-18T18:46:35;12.60;;;7.40;;
40286;SDS011;25998;46.604;13.610;2022-10-18T18:49:47;12.43;;;7.57;;
40286;SDS011;25998;46.604;13.610;2022-10-18T18:53:00;11.27;;;8.57;;
40286;SDS011;25998;46.604;13.610;2022-10-18T18:56:12;15.48;;;8.45;;
40286;SDS011;25998;46.604;13.610;2022-10-18T18:59:25;12.68;;;8.38;;
40286;SDS011;25998;46.604;13.610;2022-10-18T19:02:36;11.23;;;8.80;;
40286;SDS011;25998;46.604;13.610;2022-10-18T19:05:46;12.90;;;8.25;;
40286;SDS011;25998;46.604;13.610;2022-10-18T19:08:58;15.93;;;8.52;;
40286;SDS011;25998;46.604;13.610;2022-10-18T19:12:12;12.98;;;8.93;;
40286;SDS011;25998;46.604;13.610;2022-10-18T19:15:22;12.43;;;8.93;;
40286;SDS011;25998;46.604;13.610;2022-10-18T19:18:34;15.48;;;8.85;;
40286;SDS011;25998;46.604;13.610;2022-10-18T19:21:45;12.02;;;8.80;;
40286;SDS011;25998;46.604;13.610;2022-10-18T19:24:58;12.50;;;8.10;;
40286;SDS011;25998;46.604;13.610;2022-10-18T19:28:09;15.65;;;8.30;;
40286;SDS011;25998;46.604;13.610;2022-10-18T19:31:20;17.27;;;8.68;;
40286;SDS011;25998;46.604;13.610;2022-10-18T19:34:31;12.20;;;8.20;;
40286;SDS011;25998;46.604;13.610;2022-10-18T19:37:46;11.13;;;8.20;;
40286;SDS011;25998;46.604;13.610;2022-10-18T19:40:56;10.32;;;7.75;;
40286;SDS011;25998;46.604;13.610;2022-10-18T19:44:07;9.90;;;7.90;;
40286;SDS011;25998;46.604;13.610;2022-10-18T19:47:18;11.30;;;7.78;;
40286;SDS011;25998;46.604;13.610;2022-10-18T19:50:29;11.32;;;7.60;;
40286;SDS011;25998;46.604;13.610;2022-10-18T19:53:40;10.57;;;7.13;;
40286;SDS011;25998;46.604;13.610;2022-10-18T19:56:51;11.95;;;7.47;;
40286;SDS011;25998;46.604;13.610;2022-10-18T20:00:02;10.27;;;7.20;;
40286;SDS011;25998;46.604;13.610;2022-10-18T20:03:13;9.32;;;7.40;;
40286;SDS011;25998;46.604;13.610;2022-10-18T20:06:25;11.00;;;7.32;;
40286;SDS011;25998;46.604;13.610;2022-10-18T20:09:36;9.75;;;6.93;;
40286;SDS011;25998;46.604;13.610;2022-10-18T20:12:48;11.60;;;7.05;;
40286;SDS011;25998;46.604;13.610;2022-10-18T20:15:59;8.85;;;7.75;;
40286;SDS011;25998;46.604;13.610;2022-10-18T20:19:11;9.75;;;6.82;;
40286;SDS011;25998;46.604;13.610;2022-10-18T20:22:21;9.45;;;6.82;;
40286;SDS011;25998;46.604;13.610;2022-10-18T20:25:32;9.32;;;6.82;;
40286;SDS011;25998;46.604;13.610;2022-10-18T20:28:43;10.70;;;6.97;;
40286;SDS011;25998;46.604;13.610;2022-10-18T20:31:55;10.02;;;7.43;;
40286;SDS011;25998;46.604;13.610;2022-10-18T20:35:06;11.75;;;7.93;;
40286;SDS011;25998;46.604;13.610;2022-10-18T20:38:17;9.50;;;7.05;;
40286;SDS011;25998;46.604;13.610;2022-10-18T20:41:29;11.32;;;7.63;;
40286;SDS011;25998;46.604;13.610;2022-10-18T20:44:43;10.23;;;7.18;;
40286;SDS011;25998;46.604;13.610;2022-10-18T20:47:56;10.32;;;7.10;;
40286;SDS011;25998;46.604;13.610;2022-10-18T20:51:07;8.20;;;6.95;;